CTV113 WAMG-WAAA
Flight info
| Callsign | CTV113 |
|---|---|
| Flight time | N/A |
| Altitude | 34000 |
| Route | ENTEG W32 VENRU |
| Aircraft | A320/M-SDE3FGHIRWY/LB1 |
Departure
| Time | 2026-04-12 05:13 |
|---|---|
| Airport | Jalaluddin Airport (WAMG) |
Arrival
| Time | N/A |
|---|---|
| Airport | Sultan Hasanuddin International Airport (WAAA) |
| Time | Latitude | Longitude | Altitude | Speed | Heading |
|---|---|---|---|---|---|
| 2026-04-12 04:40 | 0.64005 | 122.84513 | 132 ft | 0 kts | 7° |
| 2026-04-12 05:03 | 0.64000 | 122.84512 | 133 ft | 2 kts | 5° |
| 2026-04-12 05:03 | 0.63985 | 122.84511 | 133 ft | 2 kts | 7° |
| 2026-04-12 05:04 | 0.63970 | 122.84509 | 133 ft | 2 kts | 6° |
| 2026-04-12 05:04 | 0.63955 | 122.84508 | 133 ft | 2 kts | 7° |
| 2026-04-12 05:04 | 0.63941 | 122.84509 | 133 ft | 2 kts | 319° |
| 2026-04-12 05:04 | 0.63935 | 122.84522 | 133 ft | 2 kts | 269° |
| 2026-04-12 05:05 | 0.63934 | 122.84538 | 133 ft | 2 kts | 280° |
| 2026-04-12 05:05 | 0.63933 | 122.84542 | 133 ft | 0 kts | 279° |
| 2026-04-12 05:08 | 0.63933 | 122.84541 | 132 ft | 0 kts | 279° |
| 2026-04-12 05:08 | 0.63936 | 122.84519 | 132 ft | 5 kts | 277° |
| 2026-04-12 05:09 | 0.63943 | 122.84470 | 133 ft | 8 kts | 277° |
| 2026-04-12 05:09 | 0.63950 | 122.84409 | 133 ft | 9 kts | 277° |
| 2026-04-12 05:09 | 0.63952 | 122.84362 | 132 ft | 6 kts | 249° |
| 2026-04-12 05:09 | 0.63911 | 122.84343 | 133 ft | 7 kts | 188° |
| 2026-04-12 05:10 | 0.63857 | 122.84336 | 133 ft | 8 kts | 188° |
| 2026-04-12 05:10 | 0.63803 | 122.84323 | 132 ft | 7 kts | 217° |
| 2026-04-12 05:10 | 0.63797 | 122.84273 | 133 ft | 8 kts | 277° |
| 2026-04-12 05:10 | 0.63805 | 122.84206 | 132 ft | 10 kts | 277° |
| 2026-04-12 05:11 | 0.63815 | 122.84125 | 132 ft | 12 kts | 277° |
| 2026-04-12 05:11 | 0.63826 | 122.84036 | 133 ft | 13 kts | 277° |
| 2026-04-12 05:11 | 0.63836 | 122.83945 | 133 ft | 13 kts | 277° |
| 2026-04-12 05:11 | 0.63826 | 122.83858 | 133 ft | 12 kts | 256° |
| 2026-04-12 05:12 | 0.63847 | 122.83815 | 132 ft | 5 kts | 20° |
| 2026-04-12 05:12 | 0.63848 | 122.83841 | 133 ft | 4 kts | 97° |
| 2026-04-12 05:12 | 0.63837 | 122.83935 | 133 ft | 39 kts | 97° |
| 2026-04-12 05:12 | 0.63774 | 122.84441 | 133 ft | 105 kts | 97° |
| 2026-04-12 05:13 | 0.63654 | 122.85368 | 134 ft | 160 kts | 97° |
| 2026-04-12 05:13 | 0.63498 | 122.86536 | 505 ft | 172 kts | 96° |
| 2026-04-12 05:13 | 0.63350 | 122.87726 | 1072 ft | 176 kts | 98° |
| 2026-04-12 05:13 | 0.63171 | 122.88924 | 1703 ft | 177 kts | 101° |
| 2026-04-12 05:14 | 0.62788 | 122.90104 | 2119 ft | 185 kts | 115° |
| 2026-04-12 05:14 | 0.62093 | 122.91219 | 2400 ft | 199 kts | 131° |
| 2026-04-12 05:14 | 0.60906 | 122.92001 | 2675 ft | 213 kts | 166° |
| 2026-04-12 05:14 | 0.59411 | 122.91956 | 2949 ft | 227 kts | 199° |
| 2026-04-12 05:15 | 0.57905 | 122.91289 | 3251 ft | 245 kts | 211° |
| 2026-04-12 05:15 | 0.56425 | 122.90373 | 3603 ft | 262 kts | 214° |
| 2026-04-12 05:15 | 0.54869 | 122.89324 | 4031 ft | 276 kts | 215° |
| 2026-04-12 05:15 | 0.53287 | 122.88249 | 4813 ft | 277 kts | 215° |
| 2026-04-12 05:16 | 0.51667 | 122.87199 | 5555 ft | 280 kts | 208° |
| 2026-04-12 05:16 | 0.49841 | 122.86581 | 6171 ft | 287 kts | 186° |
| 2026-04-12 05:16 | 0.47831 | 122.86616 | 6961 ft | 289 kts | 175° |
| 2026-04-12 05:16 | 0.45854 | 122.86805 | 7693 ft | 292 kts | 174° |